Bootsie B, — WDF9484 — position and weather

sailwx.info

Track history (hours):
 
Tides and Currents Weather Stations Pressure Air Temp Water Temp Dewpoint Dewpoint Depression Visibility Wind Speed Wind Dir Waves Ship Positions

Bootsie B,

Owner: Marquette Transp[ortation Co. LLC, Paducah, KY. More information available from US FCC via Universal Licensing System and Coast Guard Vessel Documentation Center.

Last reported at 2017-Nov-16 14:22 UTC. Time now 2017-Nov-20 12:02 UTC.
Position N 31°54' W 091°12'.

Length 57 m.

Type: Towing. MMSI: 367505630.

Date/timePositionNaut miles runAvg speedWind from/ knotsBaromVisibWave heightAir tempDewpointWater temp
2017-Nov-16 14:22N 31°54' W 091°12'410.0
2017-Nov-16 14:00N 31°58' W 091°11'5 9.1
2017-Nov-16 13:26N 31°60' W 091°05'4 9.8
2017-Nov-16 13:00N 32°03' W 091°03'5 9.3
2017-Nov-16 12:30N 32°07' W 091°07'3 6.8
2017-Nov-16 12:00N 32°07' W 091°03'4 8.2
2017-Nov-16 11:30N 32°11' W 091°00'510.1
2017-Nov-16 11:00N 32°15' W 090°58'5 9.8
2017-Nov-16 10:30N 32°19' W 090°54'4 7.3
2017-Nov-16 10:00N 32°21' W 090°58'4 7.2
2017-Nov-16 09:30N 32°24' W 090°59'5 9.6
2017-Nov-16 09:00N 32°27' W 091°04'4 8.7
2017-Nov-16 08:30N 32°30' W 091°07'5 9.1
2017-Nov-16 08:00N 32°35' W 091°08'5 9.3
2017-Nov-16 07:30N 32°40' W 091°09'6 9.3
2017-Nov-16 06:54N 32°43' W 091°03'  
Track history (hours):
 
Tides and Currents Weather Stations Pressure Air Temp Water Temp Dewpoint Dewpoint Depression Visibility Wind Speed Wind Dir Waves Ship Positions

Bootsie B,

Owner: Marquette Transp[ortation Co. LLC, Paducah, KY. More information available from US FCC via Universal Licensing System and Coast Guard Vessel Documentation Center.

Last reported at 2017-Nov-16 14:22 UTC. Time now 2017-Nov-20 12:02 UTC.
Position N 31°54' W 091°12'.

Length 57 m.

Type: Towing. MMSI: 367505630.

Date/timePositionNaut miles runAvg speedWind from/ knotsBaromVisibWave heightAir tempDewpointWater temp
2017-Nov-16 14:22N 31°54' W 091°12'410.0
2017-Nov-16 14:00N 31°58' W 091°11'5 9.1
2017-Nov-16 13:26N 31°60' W 091°05'4 9.8
2017-Nov-16 13:00N 32°03' W 091°03'5 9.3
2017-Nov-16 12:30N 32°07' W 091°07'3 6.8
2017-Nov-16 12:00N 32°07' W 091°03'4 8.2
2017-Nov-16 11:30N 32°11' W 091°00'510.1
2017-Nov-16 11:00N 32°15' W 090°58'5 9.8
2017-Nov-16 10:30N 32°19' W 090°54'4 7.3
2017-Nov-16 10:00N 32°21' W 090°58'4 7.2
2017-Nov-16 09:30N 32°24' W 090°59'5 9.6
2017-Nov-16 09:00N 32°27' W 091°04'4 8.7
2017-Nov-16 08:30N 32°30' W 091°07'5 9.1
2017-Nov-16 08:00N 32°35' W 091°08'5 9.3
2017-Nov-16 07:30N 32°40' W 091°09'6 9.3
2017-Nov-16 06:54N 32°43' W 091°03'  

Dump ship's entire track history